createdAt,value
2022-12-05T00:00:20.764Z,6.72
2022-12-05T00:05:43.729Z,6.21
2022-12-05T00:10:47.671Z,7.15
2022-12-05T00:15:51.583Z,5.01
2022-12-05T00:20:55.508Z,5.28
2022-12-05T00:26:05.468Z,6.05
2022-12-05T00:31:19.732Z,6.27
2022-12-05T00:36:27.869Z,6.20
2022-12-05T00:41:31.618Z,6.35
2022-12-05T00:46:37.296Z,5.67
2022-12-05T00:51:43.783Z,5.68
2022-12-05T00:56:47.707Z,6.59
2022-12-05T01:01:52.965Z,6.19
2022-12-05T01:06:59.323Z,6.89
2022-12-05T01:12:02.967Z,4.93
2022-12-05T01:17:06.992Z,5.28
2022-12-05T01:22:10.904Z,6.11
2022-12-05T01:27:14.924Z,5.98
2022-12-05T01:32:19.009Z,6.64
2022-12-05T01:37:23.094Z,5.77
2022-12-05T01:42:26.905Z,5.37
2022-12-05T01:47:35.516Z,5.85
2022-12-05T01:52:40.272Z,5.83
2022-12-05T01:57:47.398Z,5.95
2022-12-05T02:03:02.433Z,5.80
2022-12-05T02:08:11.780Z,6.76
2022-12-05T02:13:34.991Z,4.93
2022-12-05T02:19:05.188Z,5.85
2022-12-05T02:24:47.188Z,6.28
2022-12-05T02:30:12.712Z,5.42
2022-12-05T02:35:42.311Z,5.81
2022-12-05T02:41:20.054Z,6.10
2022-12-05T02:46:29.354Z,6.15
2022-12-05T02:51:42.357Z,6.31
2022-12-05T02:56:49.718Z,6.14
2022-12-05T03:01:53.963Z,6.17
2022-12-05T03:07:10.582Z,6.65
2022-12-05T03:12:32.080Z,5.11
2022-12-05T03:17:57.178Z,4.50
2022-12-05T03:23:20.058Z,5.68
2022-12-05T03:28:45.382Z,6.80
2022-12-05T03:33:58.398Z,5.82
2022-12-05T03:39:29.746Z,6.03
2022-12-05T03:45:02.686Z,5.42
2022-12-05T03:50:20.254Z,5.43
2022-12-05T03:55:28.469Z,5.63
2022-12-05T04:00:41.316Z,5.07
2022-12-05T04:05:58.363Z,5.25
2022-12-05T04:11:08.727Z,5.15
2022-12-05T04:16:43.182Z,5.33
2022-12-05T04:21:54.457Z,4.73
2022-12-05T04:27:32.879Z,4.48
2022-12-05T04:33:05.514Z,5.94
2022-12-05T04:38:40.055Z,6.09
2022-12-05T04:43:49.461Z,5.45
2022-12-05T04:49:00.154Z,6.48
2022-12-05T04:54:25.079Z,4.85
2022-12-05T04:59:29.013Z,5.99
2022-12-05T05:04:58.259Z,6.48
2022-12-05T05:10:02.271Z,4.90
2022-12-05T05:15:07.153Z,5.30
2022-12-05T05:20:28.063Z,4.50
2022-12-05T05:25:31.796Z,4.17
2022-12-05T05:30:38.581Z,3.99
2022-12-05T05:35:42.416Z,4.79
2022-12-05T05:40:46.227Z,5.21
2022-12-05T05:45:49.707Z,5.36
2022-12-05T05:50:53.464Z,4.63
2022-12-05T05:55:57.331Z,5.04
2022-12-05T06:01:10.176Z,5.71
2022-12-05T06:06:15.516Z,5.84
2022-12-05T06:11:26.204Z,5.32
2022-12-05T06:16:32.325Z,5.72
2022-12-05T06:21:36.285Z,6.01
2022-12-05T06:26:40.323Z,6.24
2022-12-05T06:31:44.481Z,4.78
2022-12-05T06:36:48.590Z,6.37
2022-12-05T06:41:52.296Z,5.12
2022-12-05T06:46:56.449Z,5.13
2022-12-05T06:52:00.792Z,5.42
2022-12-05T06:57:04.762Z,5.55
2022-12-05T07:02:10.468Z,5.52
2022-12-05T07:07:14.301Z,4.90
2022-12-05T07:12:20.149Z,5.46
2022-12-05T07:17:23.809Z,6.22
2022-12-05T07:22:27.716Z,5.51
2022-12-05T07:27:31.551Z,5.67
2022-12-05T07:32:35.354Z,6.10
2022-12-05T07:37:38.978Z,5.37
2022-12-05T07:42:42.809Z,5.05
2022-12-05T07:47:46.974Z,5.76
2022-12-05T07:52:51.015Z,6.38
2022-12-05T07:57:54.587Z,5.19
2022-12-05T08:02:58.779Z,5.02
2022-12-05T08:08:02.738Z,5.18
2022-12-05T08:13:08.421Z,4.96
2022-12-05T08:18:12.145Z,4.63
2022-12-05T08:23:16.168Z,4.85
2022-12-05T08:28:20.102Z,5.55
2022-12-05T08:33:24.235Z,6.45
2022-12-05T08:38:28.129Z,5.61
2022-12-05T08:43:33.144Z,5.21
2022-12-05T08:48:37.489Z,6.46
2022-12-05T08:53:44.715Z,6.00
2022-12-05T08:58:48.941Z,4.80
2022-12-05T09:03:52.612Z,5.75
2022-12-05T09:09:04.960Z,6.54
2022-12-05T09:14:09.068Z,4.57
2022-12-05T09:19:17.507Z,4.39
2022-12-05T09:24:21.205Z,4.74
2022-12-05T09:29:26.167Z,4.82
2022-12-05T09:34:29.888Z,5.01
2022-12-05T09:39:35.528Z,4.57
2022-12-05T09:45:02.864Z,4.43
2022-12-05T09:50:53.452Z,4.76
2022-12-05T09:56:12.135Z,4.83
2022-12-05T10:01:46.199Z,4.10
2022-12-05T10:07:47.786Z,4.51
2022-12-05T10:13:15.524Z,4.94
2022-12-05T10:18:52.800Z,5.87
2022-12-05T10:24:03.308Z,5.18
2022-12-05T10:29:28.723Z,4.88
2022-12-05T10:34:41.367Z,4.97
2022-12-05T10:39:47.540Z,5.01
2022-12-05T10:45:05.874Z,4.76
2022-12-05T10:50:38.830Z,4.43
2022-12-05T10:56:21.449Z,4.42
2022-12-05T11:01:16.246Z,4.51
2022-12-05T11:06:31.686Z,4.17
2022-12-05T11:11:35.494Z,4.31
2022-12-05T11:16:40.015Z,4.30
2022-12-05T11:21:45.092Z,4.02
2022-12-05T11:26:49.528Z,4.29
2022-12-05T11:31:53.249Z,4.80
2022-12-05T11:37:05.727Z,4.44
2022-12-05T11:42:51.804Z,4.96
2022-12-05T11:48:33.792Z,5.21
2022-12-05T11:54:30.587Z,5.04
2022-12-05T12:00:13.055Z,5.37
2022-12-05T12:06:01.910Z,5.29
2022-12-05T12:11:44.737Z,5.24
2022-12-05T12:17:09.193Z,5.10
2022-12-05T12:22:26.683Z,5.17
2022-12-05T12:28:22.131Z,4.53
2022-12-05T12:34:00.716Z,4.33
2022-12-05T12:39:45.335Z,4.53
2022-12-05T12:45:02.375Z,4.57
2022-12-05T12:50:28.933Z,5.10
2022-12-05T12:55:39.467Z,5.77
2022-12-05T13:01:27.564Z,5.18
2022-12-05T13:06:49.865Z,4.93
2022-12-05T13:11:56.783Z,6.04
2022-12-05T13:17:01.992Z,5.78
2022-12-05T13:22:09.335Z,4.35
2022-12-05T13:27:20.164Z,5.90
2022-12-05T13:32:32.973Z,5.82
2022-12-05T13:38:04.096Z,4.09
2022-12-05T13:43:10.319Z,4.73
2022-12-05T13:48:26.466Z,5.04
2022-12-05T13:53:44.420Z,5.37
2022-12-05T13:58:56.329Z,5.65
2022-12-05T14:04:22.017Z,5.92
2022-12-05T14:09:49.573Z,6.04
2022-12-05T14:14:56.069Z,5.83
2022-12-05T14:20:40.503Z,6.36
2022-12-05T14:26:34.452Z,4.71
2022-12-05T14:32:03.969Z,3.81
2022-12-05T14:37:26.487Z,4.50
2022-12-05T14:42:54.589Z,4.92
2022-12-05T14:48:45.581Z,5.52
2022-12-05T14:53:52.164Z,5.63
2022-12-05T14:59:08.097Z,5.94
2022-12-05T15:04:33.193Z,6.00
2022-12-05T15:10:01.363Z,6.32
2022-12-05T15:15:39.726Z,6.39
2022-12-05T15:21:02.917Z,6.22
2022-12-05T15:26:45.466Z,6.14
2022-12-05T15:31:52.863Z,6.65
2022-12-05T15:37:04.258Z,5.09
2022-12-05T15:42:16.388Z,4.43
2022-12-05T15:47:26.728Z,5.17
2022-12-05T15:52:43.044Z,5.51
2022-12-05T15:58:27.628Z,5.55
2022-12-05T16:04:16.821Z,5.26
2022-12-05T16:09:29.014Z,4.57
2022-12-05T16:20:22.843Z,4.47
2022-12-05T16:25:34.427Z,4.93
2022-12-05T16:30:40.409Z,5.42
2022-12-05T16:35:50.738Z,5.63
2022-12-05T16:40:57.850Z,5.19
2022-12-05T16:46:13.775Z,5.01
2022-12-05T16:51:22.434Z,4.39
2022-12-05T16:56:32.758Z,4.53
2022-12-05T17:01:39.157Z,4.46
2022-12-05T17:06:43.481Z,4.27
2022-12-05T17:11:52.939Z,4.81
2022-12-05T17:16:56.983Z,4.69
2022-12-05T17:22:01.237Z,4.15
2022-12-05T17:27:10.186Z,4.29
2022-12-05T17:32:14.260Z,4.27
2022-12-05T17:37:18.100Z,4.46
2022-12-05T17:42:22.730Z,4.72
2022-12-05T17:47:26.547Z,4.91
2022-12-05T17:52:31.016Z,4.97
2022-12-05T17:57:38.519Z,4.59
2022-12-05T18:02:45.217Z,4.37
2022-12-05T18:07:49.131Z,4.67
2022-12-05T18:12:52.989Z,6.30
2022-12-05T18:17:57.146Z,6.66
2022-12-05T18:23:03.183Z,5.44
2022-12-05T18:28:07.112Z,6.35
2022-12-05T18:33:11.036Z,6.09
2022-12-05T18:38:15.642Z,5.81
2022-12-05T18:43:20.526Z,5.88
2022-12-05T18:48:38.726Z,5.39
2022-12-05T18:53:53.630Z,5.61
2022-12-05T18:59:02.805Z,6.10
2022-12-05T19:04:08.973Z,6.33
2022-12-05T19:09:19.823Z,6.17
2022-12-05T19:14:28.223Z,6.33
2022-12-05T19:19:33.256Z,6.68
2022-12-05T19:24:38.857Z,7.20
2022-12-05T19:29:44.017Z,6.59
2022-12-05T19:34:50.293Z,5.44
2022-12-05T19:39:55.821Z,6.32
2022-12-05T19:45:07.510Z,6.74
2022-12-05T19:50:13.434Z,7.00
2022-12-05T19:55:17.224Z,6.94
2022-12-05T20:00:21.060Z,5.74
2022-12-05T20:05:26.527Z,6.09
2022-12-05T20:10:33.069Z,6.37
2022-12-05T20:15:44.708Z,6.60
2022-12-05T20:21:02.388Z,6.54
2022-12-05T20:26:30.699Z,6.05
2022-12-05T20:31:41.854Z,6.20
2022-12-05T20:36:45.522Z,6.80
2022-12-05T20:41:50.534Z,6.72
2022-12-05T20:46:54.492Z,6.57
2022-12-05T20:51:58.297Z,6.61
2022-12-05T20:57:03.683Z,6.95
2022-12-05T21:02:08.157Z,7.95
2022-12-05T21:07:11.847Z,6.85
2022-12-05T21:12:15.869Z,5.77
2022-12-05T21:17:19.399Z,6.90
2022-12-05T21:22:23.089Z,7.48
2022-12-05T21:27:28.850Z,7.27
2022-12-05T21:32:32.497Z,5.39
2022-12-05T21:37:40.419Z,6.35
2022-12-05T21:42:44.243Z,7.18
2022-12-05T21:47:48.171Z,7.54
2022-12-05T21:52:51.692Z,6.84
2022-12-05T21:57:55.617Z,6.09
2022-12-05T22:02:59.333Z,6.47
2022-12-05T22:08:06.443Z,7.01
2022-12-05T22:13:10.986Z,6.82
2022-12-05T22:18:14.498Z,6.95
2022-12-05T22:23:18.439Z,7.29
2022-12-05T22:28:21.947Z,7.07
2022-12-05T22:33:27.513Z,7.24
2022-12-05T22:38:35.332Z,6.94
2022-12-05T22:43:40.702Z,6.72
2022-12-05T22:48:45.613Z,6.75
2022-12-05T22:53:54.531Z,6.68
2022-12-05T22:59:00.575Z,6.95
2022-12-05T23:04:12.269Z,6.91
2022-12-05T23:09:15.904Z,6.95
2022-12-05T23:14:19.922Z,6.90
2022-12-05T23:19:23.869Z,7.58
2022-12-05T23:24:27.384Z,7.78
2022-12-05T23:29:31.107Z,7.32
2022-12-05T23:34:35.037Z,5.88
2022-12-05T23:39:38.687Z,6.53
2022-12-05T23:44:43.387Z,7.25
2022-12-05T23:49:46.903Z,7.04
2022-12-05T23:54:50.563Z,6.84
2022-12-05T23:59:54.449Z,6.75
